Alyth, United Kingdom
Current Conditions -  °F | °C
As of 11:50 AM on Saturday 25 Oct 2014 (Local Time) from EGPN Reporting Station
Broken Clouds Broken Clouds  
Wind Chill: 54°   Ceiling: 2000
Heat Index: 54°   Visibility: 6mi
Dew Point: 48°   Wind: 30mph
Humidity: 82%   Direction: 230°SW
Pressure: 29.62"   Gusts: NA
Location:  56.62°N, 3.23°W
Report Text: EGPN 251050Z 23026KT 9999 SCT015 BKN020 12/09 Q1003
Loading
Personal Weather Stations






























Interactive Weather Map New forecast layout! Learn more

10-Day Weather Forecast

Advertisements
Track Severe Weather on mobile